Heat Advisory
until 8:00 PM EDT
| Date | Temp High/Low | Dew Pt High/Low | Humidity | Wind | Max Wind | Wind Gust | Pressure | Precip. | Condition |
|---|---|---|---|---|---|---|---|---|---|
| 1/31/2021 | 33 °F / 30 °F | 32 °F / 18 °F | 90 % | 14 mph | - | 29.96 in | 1.13 in | ||
| 1/30/2021 | 33 °F / 30 °F | 17 °F / 9 °F | 53 % | 13 mph | - | 30.17 in | 0 in | ||
| 1/29/2021 | 40 °F / 17 °F | 12 °F / 6 °F | 46 % | 16 mph | - | 30.13 in | 0 in | ||
| 1/28/2021 | 36 °F / 21 °F | 29 °F / 10 °F | 65 % | 24 mph | - | 29.98 in | 0.03 in | ||
| 1/27/2021 | 40 °F / 27 °F | 41 °F / 26 °F | 81 % | 13 mph | - | 29.86 in | 0 in | ||
| 1/26/2021 | 50 °F / 37 °F | 42 °F / 35 °F | 95 % | 10 mph | - | 29.72 in | 0.62 in | ||
| 1/25/2021 | 44 °F / 35 °F | 38 °F / 27 °F | 81 % | 12 mph | - | 29.87 in | 0.81 in | ||
| 1/24/2021 | 44 °F / 34 °F | 29 °F / 10 °F | 53 % | 7 mph | - | 30.09 in | 0.01 in | ||
| 1/23/2021 | 43 °F / 19 °F | 21 °F / 9 °F | 52 % | 17 mph | - | 30.01 in | 0 in | ||
| 1/22/2021 | 40 °F / 24 °F | 29 °F / 21 °F | 49 % | 18 mph | - | 29.68 in | 0 in | ||
| 1/21/2021 | 55 °F / 30 °F | 31 °F / 20 °F | 58 % | 17 mph | - | 29.65 in | 0 in | ||
| 1/20/2021 | 58 °F / 25 °F | 29 °F / 15 °F | 53 % | 23 mph | - | 29.88 in | 0 in | ||
| 1/19/2021 | 51 °F / 27 °F | 30 °F / 21 °F | 58 % | 20 mph | - | 29.99 in | 0 in | ||
| 1/18/2021 | 57 °F / 26 °F | 29 °F / 19 °F | 59 % | 21 mph | - | 29.74 in | 0 in | ||
| 1/17/2021 | 49 °F / 32 °F | 30 °F / 24 °F | 61 % | 15 mph | - | 29.63 in | 0 in | ||
| 1/16/2021 | 50 °F / 29 °F | 45 °F / 27 °F | 85 % | 14 mph | - | 29.43 in | 0.03 in | ||
| 1/15/2021 | 46 °F / 33 °F | 44 °F / 44 °F | 97 % | 3 mph | - | 29.44 in | 0 in | ||
| 1/14/2021 | 55 °F / 29 °F | 35 °F / 25 °F | 63 % | 7 mph | - | 29.66 in | 0 in | ||
| 1/13/2021 | 57 °F / 32 °F | 33 °F / 21 °F | 66 % | 12 mph | - | 29.85 in | 0 in | ||
| 1/12/2021 | 54 °F / 26 °F | 34 °F / 28 °F | 72 % | 9 mph | - | 29.96 in | 0 in | ||
| 1/11/2021 | 53 °F / 31 °F | 36 °F / 23 °F | 76 % | 8 mph | - | 30.1 in | 0.02 in | ||
| 1/10/2021 | 46 °F / 26 °F | 26 °F / 21 °F | 57 % | 16 mph | - | 30.07 in | 0 in | ||
| 1/9/2021 | 52 °F / 28 °F | 24 °F / 12 °F | 51 % | 17 mph | - | 29.8 in | 0 in | ||
| 1/8/2021 | 47 °F / 30 °F | 29 °F / 23 °F | 66 % | 12 mph | - | 29.79 in | 0 in | ||
| 1/7/2021 | 43 °F / 32 °F | 30 °F / 24 °F | 69 % | 16 mph | - | 30 in | 0 in | ||
| 1/6/2021 | 48 °F / 26 °F | 31 °F / 25 °F | 62 % | 20 mph | - | 29.95 in | 0 in | ||
| 1/5/2021 | 48 °F / 32 °F | 38 °F / 32 °F | 79 % | 14 mph | - | 29.76 in | 0 in | ||
| 1/4/2021 | 50 °F / 38 °F | 37 °F / 33 °F | 84 % | 13 mph | - | 29.82 in | 0 in | ||
| 1/3/2021 | 47 °F / 34 °F | 43 °F / 38 °F | 95 % | 10 mph | - | 29.77 in | 2.19 in | ||
| 1/2/2021 | 50 °F / 40 °F | 50 °F / 36 °F | 84 % | 10 mph | - | 29.81 in | 0.01 in | ||
| 1/1/2021 | 66 °F / 37 °F | 38 °F / 30 °F | 82 % | 13 mph | - | 30.08 in | 0.96 in |